Time;durP1;ratioP1;P1;durP2;ratioP2;P2;SDS_P1;SDS_P2;PMS_P1;PMS_P2;Temp;Humidity;BMP_temperature;BMP_pressure;BME280_temperature;BME280_humidity;BME280_pressure;Samples;Min_cycle;Max_cycle;Signal;HPM_P1;HPM_P2
2022/11/23 00:00:40;;;;;;;10.82;4.93;;;4.60;99.90;;;;;;4740902;30;20058;-76
2022/11/23 00:03:15;;;;;;;12.45;5.20;;;4.60;99.90;;;;;;4751648;30;20089;-76
2022/11/23 00:05:42;;;;;;;13.13;5.45;;;4.60;99.90;;;;;;4752821;30;20138;-76
2022/11/23 00:08:09;;;;;;;13.40;6.57;;;4.70;99.90;;;;;;4773021;29;20059;-77
2022/11/23 00:10:36;;;;;;;14.40;6.32;;;4.70;99.90;;;;;;4767419;30;20048;-76
2022/11/23 00:13:03;;;;;;;11.27;4.93;;;4.60;99.90;;;;;;4765261;30;20073;-77
2022/11/23 00:15:31;;;;;;;4.85;2.22;;;4.60;99.90;;;;;;4756655;30;20060;-76
2022/11/23 00:18:01;;;;;;;11.15;4.30;;;4.70;99.90;;;;;;4755180;30;20058;-78
2022/11/23 00:20:28;;;;;;;8.88;3.92;;;4.60;99.90;;;;;;4769267;30;20044;-76
2022/11/23 00:22:55;;;;;;;13.70;5.53;;;4.60;99.90;;;;;;4745732;30;20231;-77
2022/11/23 00:25:23;;;;;;;15.45;5.93;;;4.60;99.90;;;;;;4752517;30;20446;-77
2022/11/23 00:27:49;;;;;;;12.60;3.97;;;4.70;99.90;;;;;;4765878;30;20113;-76
2022/11/23 00:30:16;;;;;;;10.02;4.65;;;4.60;99.90;;;;;;4737798;30;20047;-77
2022/11/23 00:32:43;;;;;;;11.32;4.75;;;4.60;99.90;;;;;;4753310;30;20047;-78
2022/11/23 00:35:10;;;;;;;9.60;4.00;;;4.60;99.90;;;;;;4753569;30;20071;-78
2022/11/23 00:37:37;;;;;;;12.70;4.57;;;4.60;99.90;;;;;;4748598;30;20040;-77
2022/11/23 00:40:05;;;;;;;11.05;4.38;;;4.60;99.90;;;;;;4750131;30;20063;-78
2022/11/23 00:42:32;;;;;;;15.00;6.05;;;4.60;99.90;;;;;;4750185;30;20048;-75
2022/11/23 00:45:04;;;;;;;14.63;6.03;;;4.60;99.90;;;;;;4753420;30;20063;-78
2022/11/23 00:47:32;;;;;;;14.05;5.07;;;4.60;99.90;;;;;;4766398;30;20059;-78
2022/11/23 00:49:59;;;;;;;11.45;4.50;;;4.60;99.90;;;;;;4751224;30;20044;-77
2022/11/23 00:52:26;;;;;;;8.20;3.03;;;4.60;99.90;;;;;;4751413;30;20082;-78
2022/11/23 00:54:53;;;;;;;12.18;4.85;;;4.60;99.90;;;;;;4750493;30;20081;-76
2022/11/23 00:57:20;;;;;;;9.13;3.90;;;4.60;99.90;;;;;;4738379;30;20056;-77
2022/11/23 00:59:47;;;;;;;8.13;3.55;;;4.60;99.90;;;;;;4760952;30;20707;-77
2022/11/23 01:02:14;;;;;;;10.13;3.50;;;4.50;99.90;;;;;;4755511;30;20059;-77
2022/11/23 01:04:41;;;;;;;12.57;4.95;;;4.60;99.90;;;;;;4757180;30;20512;-78
2022/11/23 01:07:08;;;;;;;13.65;4.97;;;4.60;99.90;;;;;;4750308;30;20056;-77
2022/11/23 01:09:36;;;;;;;10.52;4.30;;;4.70;99.90;;;;;;4782967;30;20051;-78
2022/11/23 01:12:05;;;;;;;12.30;4.75;;;4.60;99.90;;;;;;4771865;30;20085;-78
2022/11/23 01:14:32;;;;;;;10.43;3.50;;;4.60;99.90;;;;;;4768371;30;20389;-77
2022/11/23 01:17:03;;;;;;;11.80;4.80;;;4.60;99.90;;;;;;4769749;30;20105;-79
2022/11/23 01:19:33;;;;;;;11.32;5.57;;;4.60;99.90;;;;;;4768606;29;20104;-77
2022/11/23 01:22:00;;;;;;;12.40;5.00;;;4.60;99.90;;;;;;4783737;29;20056;-78
2022/11/23 01:24:27;;;;;;;9.80;4.68;;;4.50;99.90;;;;;;4762151;30;20040;-78
2022/11/23 01:26:54;;;;;;;12.32;5.32;;;4.60;99.90;;;;;;4768708;30;20151;-77
2022/11/23 01:29:22;;;;;;;9.32;3.92;;;4.50;99.90;;;;;;4772329;29;20065;-77
2022/11/23 01:31:49;;;;;;;9.07;3.50;;;4.50;99.90;;;;;;4771672;29;20085;-78
2022/11/23 01:34:16;;;;;;;9.82;3.33;;;4.60;99.90;;;;;;4765006;30;20062;-75
2022/11/23 01:36:44;;;;;;;13.43;4.05;;;4.50;99.90;;;;;;4772101;30;20059;-78
2022/11/23 01:39:12;;;;;;;10.52;4.07;;;4.60;99.90;;;;;;4769339;30;20062;-76
2022/11/23 01:41:41;;;;;;;7.72;3.78;;;4.50;99.90;;;;;;4771243;29;20416;-75
2022/11/23 01:44:29;;;;;;;10.63;4.15;;;4.60;99.90;;;;;;4775009;29;20043;-77
2022/11/23 01:46:59;;;;;;;9.25;3.55;;;4.50;99.90;;;;;;4779698;29;20047;-78
2022/11/23 01:49:34;;;;;;;8.93;3.95;;;4.50;99.90;;;;;;4768467;30;20054;-78
2022/11/23 01:52:08;;;;;;;8.45;3.10;;;4.50;99.90;;;;;;4768860;30;20103;-76
2022/11/23 01:54:50;;;;;;;12.18;3.67;;;4.50;99.90;;;;;;4772901;30;20043;-76
2022/11/23 01:57:21;;;;;;;8.23;3.42;;;4.50;99.90;;;;;;4781319;29;20053;-78
2022/11/23 01:59:49;;;;;;;9.68;4.45;;;4.50;99.90;;;;;;4787491;29;20531;-76
2022/11/23 02:02:17;;;;;;;10.07;4.10;;;4.50;99.90;;;;;;4771173;29;20515;-78
2022/11/23 02:04:47;;;;;;;8.50;3.80;;;4.50;99.90;;;;;;4769019;30;20604;-78
2022/11/23 02:07:17;;;;;;;6.18;2.75;;;4.50;99.90;;;;;;4747394;30;20075;-78
2022/11/23 02:09:46;;;;;;;6.85;3.45;;;4.40;99.90;;;;;;4761930;30;20402;-78
2022/11/23 02:12:14;;;;;;;10.50;4.38;;;4.50;99.90;;;;;;4778560;30;20048;-78
2022/11/23 02:14:43;;;;;;;9.02;3.28;;;4.50;99.90;;;;;;4765571;30;20083;-78
2022/11/23 02:17:10;;;;;;;7.95;3.67;;;4.50;99.90;;;;;;4766167;30;20084;-79
2022/11/23 02:20:04;;;;;;;9.75;3.10;;;4.50;99.90;;;;;;4755358;30;20048;-77
2022/11/23 02:22:50;;;;;;;10.23;4.22;;;4.50;99.90;;;;;;4776750;29;20111;-78
2022/11/23 02:25:37;;;;;;;6.25;2.85;;;4.40;99.90;;;;;;4768179;30;20071;-77
2022/11/23 02:28:05;;;;;;;7.22;3.35;;;4.40;99.90;;;;;;4779772;30;21827;-78
2022/11/23 02:30:35;;;;;;;10.10;3.60;;;4.40;99.90;;;;;;4764052;30;20074;-78
2022/11/23 02:33:05;;;;;;;10.27;3.30;;;4.40;99.90;;;;;;4771543;30;20776;-75
2022/11/23 02:35:33;;;;;;;6.60;2.85;;;4.40;99.90;;;;;;4764897;30;20142;-78
2022/11/23 02:38:03;;;;;;;8.75;3.38;;;4.40;99.90;;;;;;4765386;30;20137;-78
2022/11/23 02:40:34;;;;;;;8.57;3.67;;;4.40;99.90;;;;;;4766736;30;20097;-78
2022/11/23 02:43:02;;;;;;;5.82;2.35;;;4.40;99.90;;;;;;4765016;30;20082;-78
2022/11/23 02:45:48;;;;;;;5.28;2.15;;;4.40;99.90;;;;;;4755306;30;20377;-77
2022/11/23 02:48:16;;;;;;;7.88;2.85;;;4.40;99.90;;;;;;4767355;30;20062;-77
2022/11/23 02:50:44;;;;;;;4.72;1.92;;;4.40;99.90;;;;;;4767702;30;20079;-78
2022/11/23 02:53:12;;;;;;;4.47;1.67;;;4.40;99.90;;;;;;4764619;30;20474;-78
2022/11/23 02:55:39;;;;;;;7.70;3.03;;;4.30;99.90;;;;;;4766983;30;20054;-77
2022/11/23 02:58:06;;;;;;;8.30;3.45;;;4.40;99.90;;;;;;4766909;30;20051;-78
2022/11/23 03:00:34;;;;;;;7.35;2.72;;;4.40;99.90;;;;;;4762202;30;20093;-77
2022/11/23 03:03:02;;;;;;;4.45;2.17;;;4.40;99.90;;;;;;4765831;30;20052;-76
2022/11/23 03:05:29;;;;;;;8.38;2.70;;;4.40;99.90;;;;;;4750077;30;20048;-77
2022/11/23 03:07:56;;;;;;;8.20;3.08;;;4.40;99.90;;;;;;4780905;29;20060;-78
2022/11/23 03:10:23;;;;;;;8.82;3.22;;;4.30;99.90;;;;;;4764430;30;20048;-78
2022/11/23 03:12:54;;;;;;;9.55;2.88;;;4.30;99.90;;;;;;4746286;30;21623;-78
2022/11/23 03:15:22;;;;;;;5.30;2.08;;;4.30;99.90;;;;;;4766431;29;20138;-76
2022/11/23 03:17:50;;;;;;;6.40;2.88;;;4.30;99.90;;;;;;4764860;30;20134;-78
2022/11/23 03:20:19;;;;;;;7.32;3.20;;;4.40;99.90;;;;;;4746286;30;20068;-78
2022/11/23 03:22:48;;;;;;;5.03;2.00;;;4.30;99.90;;;;;;4763363;30;20082;-75
2022/11/23 03:25:17;;;;;;;6.55;2.55;;;4.30;99.90;;;;;;4780394;30;20416;-79
2022/11/23 03:27:47;;;;;;;8.25;3.10;;;4.30;99.90;;;;;;4765338;30;20048;-76
2022/11/23 03:30:14;;;;;;;9.13;3.30;;;4.30;99.90;;;;;;4755593;30;20513;-79
2022/11/23 03:32:42;;;;;;;8.68;2.75;;;4.30;99.90;;;;;;4746574;30;20082;-79
2022/11/23 03:35:09;;;;;;;7.28;3.33;;;4.30;99.90;;;;;;4783109;30;20070;-78
2022/11/23 03:37:49;;;;;;;9.20;3.17;;;4.30;99.90;;;;;;4762089;30;20142;-79
2022/11/23 03:40:16;;;;;;;7.35;2.72;;;4.30;99.90;;;;;;4769808;30;20043;-79
2022/11/23 03:43:02;;;;;;;8.50;3.33;;;4.30;99.90;;;;;;4776524;30;20063;-79
2022/11/23 03:45:31;;;;;;;7.70;2.50;;;4.30;99.90;;;;;;4764064;29;20101;-77
2022/11/23 03:47:58;;;;;;;7.50;3.15;;;4.30;99.90;;;;;;4748340;30;20040;-79
2022/11/23 03:50:28;;;;;;;7.07;3.13;;;4.40;99.90;;;;;;4775131;29;20056;-78
2022/11/23 03:52:55;;;;;;;6.72;2.38;;;4.30;99.90;;;;;;4768425;30;20056;-78
2022/11/23 03:55:22;;;;;;;8.30;3.05;;;4.30;99.90;;;;;;4766628;30;20446;-79
2022/11/23 03:57:58;;;;;;;8.20;3.25;;;4.30;99.90;;;;;;4767199;30;20054;-79
2022/11/23 04:00:28;;;;;;;6.93;2.50;;;4.30;99.90;;;;;;4765429;30;20492;-78
2022/11/23 04:02:57;;;;;;;8.20;2.83;;;4.30;99.90;;;;;;4763869;30;20475;-77
2022/11/23 04:05:44;;;;;;;6.35;3.20;;;4.30;99.90;;;;;;4766112;30;20469;-78
2022/11/23 04:08:21;;;;;;;6.95;2.90;;;4.30;99.90;;;;;;4785221;30;20059;-78
2022/11/23 04:10:48;;;;;;;11.50;3.63;;;4.30;99.90;;;;;;4769265;30;20047;-79
2022/11/23 04:13:21;;;;;;;4.28;2.47;;;4.30;99.90;;;;;;4772951;30;20043;-79
2022/11/23 04:15:48;;;;;;;8.45;2.67;;;4.20;99.90;;;;;;4769017;30;20515;-76
2022/11/23 04:18:15;;;;;;;9.10;3.55;;;4.30;99.90;;;;;;4768461;30;20043;-78
2022/11/23 04:20:43;;;;;;;8.52;3.47;;;4.20;99.90;;;;;;4770655;29;20079;-77
2022/11/23 04:23:10;;;;;;;7.90;3.17;;;4.20;99.90;;;;;;4758844;30;20104;-79
2022/11/23 04:25:40;;;;;;;7.28;3.05;;;4.20;99.90;;;;;;4769328;30;20070;-79
2022/11/23 04:28:08;;;;;;;6.63;2.65;;;4.20;99.90;;;;;;4783870;29;20176;-78
2022/11/23 04:30:36;;;;;;;6.75;2.38;;;4.20;99.90;;;;;;4774122;29;20082;-79
2022/11/23 04:33:03;;;;;;;7.90;3.08;;;4.20;99.90;;;;;;4767528;30;20047;-78
2022/11/23 04:35:30;;;;;;;9.55;3.28;;;4.20;99.90;;;;;;4775858;29;20108;-78
2022/11/23 04:37:57;;;;;;;7.18;2.67;;;4.30;99.90;;;;;;4770835;30;20126;-77
2022/11/23 04:40:27;;;;;;;5.32;2.33;;;4.20;99.90;;;;;;4767573;30;20395;-78
2022/11/23 04:42:57;;;;;;;6.65;2.75;;;4.20;99.90;;;;;;4757940;30;20051;-78
2022/11/23 04:45:30;;;;;;;4.97;1.85;;;4.20;99.90;;;;;;4766167;30;20054;-79
2022/11/23 04:48:02;;;;;;;8.73;2.63;;;4.20;99.90;;;;;;4783556;30;20799;-78
2022/11/23 04:50:32;;;;;;;11.00;3.38;;;4.20;99.90;;;;;;4766116;30;20055;-78
2022/11/23 04:53:00;;;;;;;11.65;3.00;;;4.20;99.90;;;;;;4771985;30;20047;-78
2022/11/23 04:55:35;;;;;;;9.40;3.28;;;4.20;99.90;;;;;;4772615;30;20047;-78
2022/11/23 04:58:03;;;;;;;6.78;2.42;;;4.20;99.90;;;;;;4785318;29;20063;-76
2022/11/23 05:00:32;;;;;;;8.52;2.88;;;4.20;99.90;;;;;;4769828;30;20165;-78
2022/11/23 05:03:02;;;;;;;4.93;0.93;;;4.20;99.90;;;;;;4771056;30;20055;-78
2022/11/23 05:05:31;;;;;;;5.07;2.45;;;4.20;99.90;;;;;;4771486;30;20043;-78
2022/11/23 05:07:59;;;;;;;6.93;3.05;;;4.20;99.90;;;;;;4784411;29;20055;-77
2022/11/23 05:10:39;;;;;;;5.97;2.00;;;4.20;99.90;;;;;;4770928;30;20054;-78
2022/11/23 05:13:07;;;;;;;6.97;2.80;;;4.20;99.90;;;;;;4769304;30;20052;-79
2022/11/23 05:15:34;;;;;;;7.00;3.03;;;4.20;99.90;;;;;;4770796;29;20047;-78
2022/11/23 05:18:06;;;;;;;10.00;3.58;;;4.20;99.90;;;;;;4767389;30;20083;-78
2022/11/23 05:20:34;;;;;;;8.73;3.70;;;4.10;99.90;;;;;;4773435;30;20044;-78
2022/11/23 05:23:02;;;;;;;9.73;3.75;;;4.20;99.90;;;;;;4773955;30;20047;-77
2022/11/23 05:25:31;;;;;;;5.25;2.30;;;4.20;99.90;;;;;;4758704;29;20500;-77
2022/11/23 05:28:01;;;;;;;6.38;2.65;;;4.20;99.90;;;;;;4756804;30;20112;-76
2022/11/23 05:30:49;;;;;;;4.78;1.95;;;4.30;99.90;;;;;;4771226;30;20564;-78
2022/11/23 05:33:16;;;;;;;7.95;2.92;;;4.20;99.90;;;;;;4770657;30;20081;-78
2022/11/23 05:35:43;;;;;;;7.43;2.58;;;4.20;99.90;;;;;;4772624;30;20146;-78
2022/11/23 05:38:11;;;;;;;7.30;3.03;;;4.20;99.90;;;;;;4770095;30;21013;-78
2022/11/23 05:40:38;;;;;;;6.18;2.60;;;4.20;99.90;;;;;;4768968;29;20050;-78
2022/11/23 05:43:06;;;;;;;7.68;2.97;;;4.20;99.90;;;;;;4769309;29;20043;-78
2022/11/23 05:45:34;;;;;;;4.47;1.80;;;4.30;99.90;;;;;;4770192;30;20503;-77
2022/11/23 05:48:02;;;;;;;5.00;2.28;;;4.20;99.90;;;;;;4768456;30;20051;-79
2022/11/23 05:50:52;;;;;;;5.38;2.10;;;4.20;99.90;;;;;;4770712;30;20051;-78
2022/11/23 05:53:33;;;;;;;6.63;2.78;;;4.20;99.90;;;;;;4775086;29;20142;-78
2022/11/23 05:56:23;;;;;;;7.05;2.80;;;4.20;99.90;;;;;;4772002;30;20423;-77
2022/11/23 05:59:04;;;;;;;4.15;1.90;;;4.20;99.90;;;;;;4772003;30;20647;-78
2022/11/23 06:01:34;;;;;;;6.88;2.63;;;4.20;99.90;;;;;;4764159;30;20055;-77
2022/11/23 06:04:02;;;;;;;6.35;2.50;;;4.20;99.90;;;;;;4767465;30;20440;-79
2022/11/23 06:06:35;;;;;;;4.20;1.23;;;4.20;99.90;;;;;;4768932;29;20134;-78
2022/11/23 06:09:02;;;;;;;11.65;2.90;;;4.10;99.90;;;;;;4768347;30;20047;-78
2022/11/23 06:11:31;;;;;;;7.80;2.55;;;4.20;99.90;;;;;;4753028;30;21094;-78
2022/11/23 06:14:04;;;;;;;7.13;2.92;;;4.20;99.90;;;;;;4766691;29;20645;-77
2022/11/23 06:16:37;;;;;;;3.88;1.25;;;4.20;99.90;;;;;;4767972;29;20142;-77
2022/11/23 06:19:28;;;;;;;5.80;2.50;;;4.20;99.90;;;;;;4772923;30;20051;-77
2022/11/23 06:21:57;;;;;;;6.22;2.88;;;4.20;99.90;;;;;;4765562;30;20043;-78
2022/11/23 06:24:26;;;;;;;6.95;2.30;;;4.10;99.90;;;;;;4762234;30;20042;-78
2022/11/23 06:27:18;;;;;;;5.07;2.15;;;4.20;99.90;;;;;;4781790;29;20063;-78
2022/11/23 06:29:47;;;;;;;7.78;2.78;;;4.20;99.90;;;;;;4770324;30;20142;-76
2022/11/23 06:32:15;;;;;;;5.30;2.22;;;4.20;99.90;;;;;;4766523;30;20062;-78
2022/11/23 06:34:42;;;;;;;6.78;2.30;;;4.20;99.90;;;;;;4776307;29;20069;-78
2022/11/23 06:37:09;;;;;;;7.47;3.25;;;4.20;99.90;;;;;;4766600;30;20053;-78
2022/11/23 06:39:37;;;;;;;5.72;2.38;;;4.20;99.90;;;;;;4767117;30;20043;-79
2022/11/23 06:42:06;;;;;;;7.03;2.30;;;4.20;99.90;;;;;;4767740;30;20109;-78
2022/11/23 06:44:53;;;;;;;10.10;2.72;;;4.20;99.90;;;;;;4763481;30;20044;-78
2022/11/23 06:47:21;;;;;;;6.85;2.67;;;4.20;99.90;;;;;;4754550;30;20066;-78
2022/11/23 06:49:54;;;;;;;5.53;2.38;;;4.20;99.90;;;;;;4758274;30;20154;-79
2022/11/23 06:52:26;;;;;;;5.68;2.53;;;4.20;99.90;;;;;;4764015;30;20039;-79
2022/11/23 06:54:53;;;;;;;6.97;2.83;;;4.20;99.90;;;;;;4764384;30;20059;-78
2022/11/23 06:57:22;;;;;;;6.15;2.35;;;4.20;99.90;;;;;;4781322;29;20057;-78
2022/11/23 06:59:50;;;;;;;6.75;2.58;;;4.30;99.90;;;;;;4770992;30;20059;-78
2022/11/23 07:02:22;;;;;;;6.47;2.47;;;4.30;99.90;;;;;;4751192;30;20539;-78
2022/11/23 07:04:51;;;;;;;8.13;2.63;;;4.20;99.90;;;;;;4775592;30;20051;-78
2022/11/23 07:07:20;;;;;;;7.03;2.55;;;4.20;99.90;;;;;;4777033;29;20186;-78
2022/11/23 07:09:54;;;;;;;6.75;2.90;;;4.30;99.90;;;;;;4765159;30;20528;-78
2022/11/23 07:12:39;;;;;;;5.10;1.90;;;4.30;99.90;;;;;;4766234;29;20075;-78
2022/11/23 07:15:07;;;;;;;6.47;2.45;;;4.30;99.90;;;;;;4767904;30;20051;-78
2022/11/23 07:17:40;;;;;;;7.32;2.63;;;4.20;99.90;;;;;;4767129;30;20054;-78
2022/11/23 07:20:11;;;;;;;7.38;2.33;;;4.30;99.90;;;;;;4768660;29;20471;-79
2022/11/23 07:25:41;;;;;;;6.78;1.85;;;4.30;99.90;;;;;;5605630;24;21252;-78
2022/11/23 07:32:14;;;;;;;5.85;2.00;;;4.30;99.90;;;;;;5746585;24;20014;31
2022/11/23 07:49:46;;;;;;;4.50;2.03;;;4.50;99.90;;;;;;1775458;24;20418;-79
2022/11/23 07:56:59;;;;;;;6.50;2.70;;;4.60;99.90;;;;;;5085597;24;20731;31
2022/11/23 07:59:43;;;;;;;7.75;3.30;;;4.60;99.90;;;;;;5271218;24;20035;31
2022/11/23 08:02:48;;;;;;;6.68;2.85;;;4.60;99.90;;;;;;4723998;30;20107;-78
2022/11/23 08:09:18;;;;;;;5.30;2.47;;;5.30;99.90;;;;;;5834933;24;20053;31
2022/11/23 08:50:08;;;;;;;8.10;2.80;;;4.90;99.90;;;;;;5267630;24;22074;-78
2022/11/23 09:24:26;;;;;;;8.93;3.72;;;5.10;99.90;;;;;;4779663;30;20052;-78
2022/11/23 09:26:55;;;;;;;10.13;4.35;;;5.00;99.90;;;;;;4766545;30;20040;-78
2022/11/23 09:29:27;;;;;;;7.85;3.40;;;5.10;99.90;;;;;;4742413;30;20079;-79
2022/11/23 09:31:56;;;;;;;8.93;3.65;;;5.10;99.90;;;;;;4968165;24;20123;-78
2022/11/23 09:34:25;;;;;;;6.78;2.65;;;4.60;99.90;;;;;;4746179;30;20056;-78
2022/11/23 09:36:55;;;;;;;6.13;3.28;;;5.10;99.90;;;;;;4712013;30;20132;-78
2022/11/23 09:39:22;;;;;;;6.50;2.55;;;5.20;99.90;;;;;;4735286;30;20571;-78
2022/11/23 09:42:27;;;;;;;7.38;2.92;;;5.10;99.90;;;;;;4731339;30;20083;-78
2022/11/23 09:45:19;;;;;;;8.10;3.03;;;5.20;99.90;;;;;;4734400;30;20045;-78
2022/11/23 09:47:50;;;;;;;7.53;3.15;;;5.20;99.90;;;;;;4736328;30;20044;-78
2022/11/23 09:50:49;;;;;;;8.23;3.15;;;5.20;99.90;;;;;;4743723;30;20114;-78
2022/11/23 09:53:27;;;;;;;7.72;2.80;;;5.10;99.90;;;;;;4742621;30;20083;-78
2022/11/23 09:55:57;;;;;;;7.53;3.17;;;5.20;99.90;;;;;;4734458;30;20057;-78
2022/11/23 09:58:34;;;;;;;8.15;3.50;;;5.20;99.90;;;;;;4733738;30;20049;-78
2022/11/23 10:01:04;;;;;;;9.10;3.72;;;5.20;99.90;;;;;;4742477;30;20053;-78
2022/11/23 10:03:38;;;;;;;8.48;3.42;;;5.10;99.90;;;;;;4741817;30;20053;-79
2022/11/23 10:06:45;;;;;;;8.90;3.25;;;5.20;99.90;;;;;;5083213;24;20413;-78
2022/11/23 10:09:45;;;;;;;7.28;3.10;;;5.20;99.90;;;;;;4737821;30;20052;-79
2022/11/23 10:12:34;;;;;;;8.93;3.75;;;5.20;99.90;;;;;;4755980;30;20739;-78
2022/11/23 10:15:19;;;;;;;7.95;4.25;;;5.30;99.90;;;;;;4736583;30;20063;-78
2022/11/23 10:18:04;;;;;;;7.22;3.90;;;4.60;99.90;;;;;;4745849;30;20060;-78
2022/11/23 10:20:43;;;;;;;6.72;2.97;;;5.20;99.90;;;;;;4749273;30;21382;-78
2022/11/23 10:23:25;;;;;;;9.07;2.97;;;5.20;99.90;;;;;;4734548;30;20047;-78
2022/11/23 10:25:52;;;;;;;8.95;3.58;;;5.20;99.90;;;;;;4747999;30;20086;-79
2022/11/23 10:28:21;;;;;;;8.43;3.25;;;5.20;99.90;;;;;;4765346;30;20124;-78
2022/11/23 10:31:10;;;;;;;9.02;3.08;;;5.20;99.90;;;;;;4745538;30;20531;-78
2022/11/23 10:33:52;;;;;;;7.50;3.17;;;5.20;99.90;;;;;;4737210;30;20044;-78
2022/11/23 10:36:20;;;;;;;9.40;3.97;;;5.20;99.90;;;;;;4764757;30;20494;-78
2022/11/23 10:38:59;;;;;;;6.65;3.00;;;6.60;99.90;;;;;;4757585;30;20055;-78
2022/11/23 10:42:21;;;;;;;7.38;3.20;;;5.20;99.90;;;;;;5349989;24;20059;-79
2022/11/23 10:45:19;;;;;;;10.52;3.65;;;5.10;99.90;;;;;;4788514;30;20075;-79
2022/11/23 10:48:33;;;;;;;8.70;4.18;;;5.30;99.90;;;;;;5567001;24;20035;31
2022/11/23 10:51:25;;;;;;;8.00;3.28;;;5.30;99.90;;;;;;5461139;24;20030;-79
2022/11/23 10:53:58;;;;;;;8.52;4.68;;;5.30;99.90;;;;;;4753393;30;20067;-77
2022/11/23 10:56:33;;;;;;;11.13;4.13;;;4.20;99.90;;;;;;4755113;30;20056;-77
2022/11/23 10:59:02;;;;;;;11.43;3.90;;;4.40;99.90;;;;;;4740721;30;20048;-77
2022/11/23 11:01:30;;;;;;;9.68;4.05;;;5.30;99.90;;;;;;4728936;30;20063;-77
2022/11/23 11:04:05;;;;;;;10.48;4.90;;;5.20;99.90;;;;;;4748384;30;20940;-77
2022/11/23 11:06:34;;;;;;;12.05;4.38;;;5.30;99.90;;;;;;4867393;24;20060;-78
2022/11/23 11:09:20;;;;;;;6.25;3.20;;;5.40;99.90;;;;;;4770517;29;21486;-78
2022/11/23 11:11:53;;;;;;;9.65;4.05;;;5.30;99.90;;;;;;4767325;29;20052;-78
2022/11/23 11:14:23;;;;;;;10.20;4.30;;;5.50;99.90;;;;;;4762129;30;20043;-78
2022/11/23 11:16:59;;;;;;;12.43;4.47;;;5.50;99.90;;;;;;4782865;30;20062;-78
2022/11/23 11:19:33;;;;;;;11.10;5.63;;;5.50;99.90;;;;;;4788027;29;20055;-78
2022/11/23 11:22:32;;;;;;;11.75;4.50;;;5.50;99.90;;;;;;4781274;30;20055;-78
2022/11/23 11:25:05;;;;;;;9.27;4.68;;;5.30;99.90;;;;;;4776728;30;20050;-78
2022/11/23 11:27:49;;;;;;;8.23;3.22;;;5.70;99.90;;;;;;4768474;30;20051;-78
2022/11/23 11:30:24;;;;;;;9.50;5.10;;;5.70;99.90;;;;;;4775132;30;20082;-78
2022/11/23 11:32:59;;;;;;;9.90;4.15;;;5.70;99.90;;;;;;4767794;30;20056;-78
2022/11/23 11:35:37;;;;;;;15.13;6.38;;;5.70;99.90;;;;;;4765641;30;20535;-78
2022/11/23 11:38:36;;;;;;;14.80;5.97;;;5.70;99.90;;;;;;4748103;30;20056;-78
2022/11/23 11:41:31;;;;;;;10.88;4.75;;;5.80;99.90;;;;;;4763088;30;20089;-78
2022/11/23 11:44:11;;;;;;;9.73;4.78;;;5.80;99.90;;;;;;4744884;30;20052;-78
2022/11/23 11:46:45;;;;;;;9.20;4.13;;;5.80;99.90;;;;;;4733178;30;20105;-78
2022/11/23 11:49:20;;;;;;;10.80;5.63;;;5.70;99.90;;;;;;4754955;30;20064;-78
2022/11/23 11:52:07;;;;;;;9.13;3.85;;;5.70;99.90;;;;;;4744704;30;20072;-78
2022/11/23 11:54:52;;;;;;;10.50;4.50;;;6.20;99.90;;;;;;4746276;30;20065;-78
2022/11/23 11:57:29;;;;;;;8.15;3.65;;;5.70;99.90;;;;;;4756691;30;20093;-78
2022/11/23 12:00:00;;;;;;;6.03;3.08;;;5.80;99.90;;;;;;4758717;30;20417;-78
2022/11/23 12:02:44;;;;;;;6.68;2.92;;;5.70;99.90;;;;;;4750422;30;20102;-78
2022/11/23 12:05:31;;;;;;;5.50;2.63;;;5.50;99.90;;;;;;4771955;30;20068;-78
2022/11/23 12:08:32;;;;;;;6.03;2.67;;;5.80;99.90;;;;;;4758918;30;20079;-78
2022/11/23 12:11:04;;;;;;;10.50;4.07;;;5.80;99.90;;;;;;4763640;30;20078;-78
2022/11/23 12:13:37;;;;;;;11.57;4.95;;;5.80;99.90;;;;;;4760411;29;20088;-78
2022/11/23 12:16:36;;;;;;;7.97;3.63;;;5.70;99.90;;;;;;4794286;29;20064;-78
2022/11/23 12:19:19;;;;;;;7.43;2.97;;;5.80;99.90;;;;;;4794512;29;20075;-78
2022/11/23 12:22:02;;;;;;;6.60;2.97;;;5.80;99.90;;;;;;4779614;29;20123;-78
2022/11/23 12:24:51;;;;;;;10.95;4.20;;;5.80;99.90;;;;;;4789297;29;20035;-78
2022/11/23 12:27:50;;;;;;;12.13;4.50;;;5.70;99.90;;;;;;4779929;29;20073;-78
2022/11/23 12:30:54;;;;;;;13.65;5.70;;;5.80;99.90;;;;;;4784724;29;20115;-78
2022/11/23 12:33:52;;;;;;;13.45;5.00;;;5.70;99.90;;;;;;4783481;29;20057;-78
2022/11/23 12:36:54;;;;;;;10.98;4.75;;;5.80;99.90;;;;;;4778685;29;20051;-78
2022/11/23 12:39:27;;;;;;;10.02;4.72;;;5.80;99.90;;;;;;4795579;29;20058;-78
2022/11/23 12:42:28;;;;;;;8.32;3.75;;;6.30;99.90;;;;;;4772399;30;20047;-78
2022/11/23 12:45:23;;;;;;;10.57;4.80;;;5.80;99.90;;;;;;4776787;30;20055;-78
2022/11/23 12:47:57;;;;;;;10.23;4.43;;;5.80;99.90;;;;;;4784146;30;20055;-78
2022/11/23 12:51:11;;;;;;;11.68;4.55;;;5.90;99.90;;;;;;4787774;30;20053;-78
2022/11/23 12:54:27;;;;;;;11.85;6.28;;;5.80;99.90;;;;;;4719976;30;20048;-78
2022/11/23 12:57:00;;;;;;;7.97;4.40;;;5.90;99.90;;;;;;4764800;30;20076;-78
2022/11/23 13:00:25;;;;;;;11.52;4.88;;;5.90;99.90;;;;;;4744679;30;20063;-78
2022/11/23 13:03:29;;;;;;;10.57;4.60;;;5.90;99.90;;;;;;4693815;30;20096;-78
2022/11/23 13:06:06;;;;;;;13.50;5.72;;;6.00;99.90;;;;;;4701077;30;20057;-78
2022/11/23 13:09:10;;;;;;;14.23;5.32;;;5.90;99.90;;;;;;4691931;30;20077;-78
2022/11/23 13:12:16;;;;;;;11.52;5.57;;;5.80;99.90;;;;;;4708187;30;20064;-78
2022/11/23 13:15:11;;;;;;;10.00;4.90;;;5.90;99.90;;;;;;4691798;30;20077;-78
2022/11/23 13:17:59;;;;;;;12.45;5.20;;;5.90;99.90;;;;;;4679456;30;20114;-78
2022/11/23 13:20:48;;;;;;;10.57;4.45;;;5.90;99.90;;;;;;4688084;30;20050;-78
2022/11/23 13:23:20;;;;;;;11.68;5.72;;;5.90;99.90;;;;;;4674012;30;20057;-78
2022/11/23 13:26:13;;;;;;;11.03;5.30;;;5.90;99.90;;;;;;4645228;30;20070;-78
2022/11/23 13:28:42;;;;;;;11.50;4.53;;;5.90;99.90;;;;;;4672856;30;20305;-78
2022/11/23 13:31:15;;;;;;;6.45;3.50;;;5.90;99.90;;;;;;4660926;30;20086;-78
2022/11/23 13:33:45;;;;;;;8.52;3.30;;;5.00;99.90;;;;;;4645544;30;20050;-78
2022/11/23 13:36:28;;;;;;;7.68;4.40;;;6.20;99.90;;;;;;4666275;30;20118;-78
2022/11/23 13:39:44;;;;;;;9.73;4.32;;;6.00;99.90;;;;;;4666637;30;20039;-78
2022/11/23 13:42:19;;;;;;;10.55;5.20;;;5.90;99.90;;;;;;4718040;30;20038;-78
2022/11/23 13:44:46;;;;;;;15.77;6.50;;;5.90;99.90;;;;;;4734636;30;20039;-78
2022/11/23 13:47:15;;;;;;;15.10;6.90;;;5.90;99.90;;;;;;4744462;30;20080;-78
2022/11/23 13:49:45;;;;;;;15.23;7.25;;;6.00;99.90;;;;;;4759679;30;20048;-78
2022/11/23 13:52:24;;;;;;;15.55;6.63;;;5.90;99.90;;;;;;4759140;30;20060;-78
2022/11/23 13:55:02;;;;;;;12.95;5.93;;;5.90;99.90;;;;;;5008775;24;20044;-78
2022/11/23 13:57:38;;;;;;;12.88;5.93;;;5.90;99.90;;;;;;4751718;30;20063;-78
2022/11/23 14:00:43;;;;;;;15.55;7.10;;;6.00;99.90;;;;;;4769311;30;20045;-78
2022/11/23 14:03:41;;;;;;;13.50;6.18;;;5.90;99.90;;;;;;4757289;30;20053;-78
2022/11/23 14:06:23;;;;;;;9.70;5.97;;;5.90;99.90;;;;;;4771160;30;20116;-78
2022/11/23 14:09:05;;;;;;;11.90;6.20;;;7.30;99.90;;;;;;4765982;30;20048;-78
2022/11/23 14:12:02;;;;;;;10.65;6.00;;;4.60;99.90;;;;;;5209702;24;20063;31
2022/11/23 14:15:06;;;;;;;10.27;5.78;;;6.00;99.90;;;;;;5480602;24;20030;-78
2022/11/23 14:24:24;;;;;;;17.35;8.70;;;6.00;99.90;;;;;;5064605;24;20119;-79
2022/11/23 14:27:25;;;;;;;16.75;8.15;;;5.90;99.90;;;;;;4800146;29;20059;-78
2022/11/23 14:30:42;;;;;;;20.88;9.00;;;5.90;99.90;;;;;;4783728;29;20079;-79
2022/11/23 14:33:18;;;;;;;22.80;11.02;;;6.00;99.90;;;;;;4753795;30;20137;-78
2022/11/23 14:36:11;;;;;;;21.98;11.10;;;5.90;99.90;;;;;;4753156;29;20068;-79
2022/11/23 14:39:16;;;;;;;20.75;9.73;;;5.90;99.90;;;;;;4772088;30;20071;-79
2022/11/23 14:41:48;;;;;;;16.63;7.38;;;5.90;99.90;;;;;;4767799;30;20120;-78
2022/11/23 14:44:25;;;;;;;19.17;9.50;;;5.90;99.90;;;;;;4765607;30;20054;-78
2022/11/23 14:47:05;;;;;;;20.38;9.18;;;6.00;99.90;;;;;;4775396;29;20310;-78
2022/11/23 14:49:34;;;;;;;22.17;10.82;;;5.90;99.90;;;;;;4770296;30;20043;-79
2022/11/23 14:52:04;;;;;;;19.02;9.57;;;5.90;99.90;;;;;;4760801;30;20331;-78
2022/11/23 14:54:32;;;;;;;21.23;9.90;;;5.90;99.90;;;;;;4752640;30;20131;-78
2022/11/23 14:57:02;;;;;;;20.40;9.45;;;5.80;99.90;;;;;;4760430;30;20137;-78
2022/11/23 14:59:36;;;;;;;19.48;9.40;;;5.80;99.90;;;;;;4755854;30;20048;-78
2022/11/23 15:02:16;;;;;;;23.40;11.25;;;4.70;99.90;;;;;;4774224;30;20055;-78
2022/11/23 15:05:10;;;;;;;25.95;12.07;;;5.90;99.90;;;;;;4762555;30;20063;-78
2022/11/23 15:07:51;;;;;;;19.13;9.32;;;6.40;99.90;;;;;;4772066;30;20054;-79
2022/11/23 15:10:42;;;;;;;53.45;25.10;;;5.90;99.90;;;;;;4769141;30;20052;-79
2022/11/23 15:13:46;;;;;;;23.95;11.98;;;5.90;99.90;;;;;;4779072;30;20058;-79
2022/11/23 15:16:16;;;;;;;28.77;15.07;;;5.90;99.90;;;;;;4744296;30;20079;-78
2022/11/23 15:18:44;;;;;;;30.67;14.93;;;5.90;99.90;;;;;;4765057;30;20143;-78
2022/11/23 15:21:11;;;;;;;31.55;16.13;;;5.90;99.90;;;;;;4779247;29;20066;-78
2022/11/23 15:23:48;;;;;;;32.88;16.45;;;5.90;99.90;;;;;;4764944;30;20079;-78
2022/11/23 15:26:30;;;;;;;36.97;17.63;;;5.90;99.90;;;;;;4766006;30;22767;-78